createdAt,value
2023-04-30T00:00:11.784Z,25.60
2023-04-30T00:06:07.287Z,25.29
2023-04-30T00:12:01.720Z,25.32
2023-04-30T00:14:31.717Z,25.12
2023-04-30T00:17:01.839Z,25.29
2023-04-30T00:19:33.082Z,25.35
2023-04-30T00:22:14.938Z,25.40
2023-04-30T00:27:40.773Z,25.34
2023-04-30T00:36:12.029Z,25.46
2023-04-30T00:38:42.969Z,25.41
2023-04-30T00:41:38.051Z,25.29
2023-04-30T00:44:11.703Z,25.25
2023-04-30T00:46:42.411Z,25.25
2023-04-30T00:55:16.606Z,25.56
2023-04-30T00:58:06.541Z,25.48
2023-04-30T01:00:39.356Z,25.62
2023-04-30T01:06:07.208Z,25.75
2023-04-30T01:08:39.049Z,25.88
2023-04-30T01:18:26.652Z,26.13
2023-04-30T01:21:10.902Z,26.06
2023-04-30T01:30:03.424Z,26.43
2023-04-30T01:32:37.072Z,26.55
2023-04-30T01:35:10.260Z,26.35
2023-04-30T01:38:06.793Z,26.50
2023-04-30T01:41:21.975Z,26.64
2023-04-30T01:44:24.551Z,26.69
2023-04-30T01:47:28.068Z,26.69
2023-04-30T01:50:41.586Z,26.72
2023-04-30T01:53:50.597Z,26.79
2023-04-30T01:56:39.330Z,26.81
2023-04-30T02:02:39.143Z,26.87
2023-04-30T02:05:12.988Z,26.93
2023-04-30T02:08:13.255Z,27.00
2023-04-30T02:11:10.139Z,27.01
2023-04-30T02:13:53.589Z,26.92
2023-04-30T02:16:30.167Z,26.89
2023-04-30T02:19:03.054Z,26.82
2023-04-30T02:21:36.158Z,26.93
2023-04-30T02:24:15.993Z,26.93
2023-04-30T02:26:58.830Z,27.17
2023-04-30T02:29:42.605Z,27.21
2023-04-30T02:32:32.281Z,27.29
2023-04-30T02:35:11.901Z,27.33
2023-04-30T02:38:06.405Z,27.28
2023-04-30T02:40:37.786Z,27.33
2023-04-30T02:46:11.916Z,27.46
2023-04-30T02:49:09.686Z,27.68
2023-04-30T02:51:50.432Z,27.59
2023-04-30T02:54:26.157Z,27.77
2023-04-30T02:57:04.452Z,27.88
2023-04-30T02:59:46.376Z,27.98
2023-04-30T03:02:22.045Z,27.86
2023-04-30T03:04:51.685Z,28.12
2023-04-30T03:07:20.861Z,28.18
2023-04-30T03:10:04.287Z,28.28
2023-04-30T03:12:34.969Z,28.39
2023-04-30T03:15:03.838Z,28.31
2023-04-30T03:24:00.067Z,28.70
2023-04-30T03:26:36.651Z,28.73
2023-04-30T03:29:05.857Z,28.93
2023-04-30T03:31:38.220Z,28.64
2023-04-30T03:34:07.643Z,28.49
2023-04-30T03:36:37.017Z,28.75
2023-04-30T03:44:41.420Z,28.81
2023-04-30T03:47:14.011Z,28.92
2023-04-30T03:50:12.872Z,28.93
2023-04-30T03:52:41.794Z,29.15
2023-04-30T03:55:12.009Z,29.39
2023-04-30T03:57:43.753Z,29.40
2023-04-30T04:00:19.230Z,29.43
2023-04-30T04:02:54.724Z,29.37
2023-04-30T04:05:23.279Z,29.54
2023-04-30T04:07:52.235Z,29.95
2023-04-30T04:10:20.989Z,30.25
2023-04-30T04:12:50.422Z,30.29
2023-04-30T04:15:19.124Z,30.45
2023-04-30T04:17:52.448Z,30.72
2023-04-30T04:20:21.355Z,30.68
2023-04-30T04:22:58.321Z,30.59
2023-04-30T04:25:59.192Z,30.42
2023-04-30T04:28:28.855Z,30.66
2023-04-30T04:30:57.684Z,30.82
2023-04-30T04:33:26.779Z,31.05
2023-04-30T04:35:56.418Z,31.30
2023-04-30T04:38:25.836Z,31.48
2023-04-30T04:40:58.426Z,31.55
2023-04-30T04:43:27.402Z,31.67
2023-04-30T04:45:56.542Z,31.95
2023-04-30T04:51:04.457Z,32.11
2023-04-30T04:53:34.863Z,32.27
2023-04-30T04:56:04.347Z,32.31
2023-04-30T04:58:33.900Z,32.21
2023-04-30T05:01:03.873Z,32.33
2023-04-30T05:03:33.743Z,32.20
2023-04-30T05:06:04.848Z,32.46
2023-04-30T05:08:33.803Z,32.73
2023-04-30T05:11:02.821Z,32.96
2023-04-30T05:13:32.404Z,32.96
2023-04-30T05:16:01.743Z,33.05
2023-04-30T05:18:31.274Z,33.00
2023-04-30T05:21:00.010Z,33.00
2023-04-30T05:23:29.490Z,33.21
2023-04-30T05:25:58.566Z,33.50
2023-04-30T05:28:27.526Z,33.52
2023-04-30T05:30:56.928Z,33.72
2023-04-30T05:33:25.944Z,33.50
2023-04-30T05:35:54.813Z,33.32
2023-04-30T05:38:25.162Z,33.89
2023-04-30T05:40:53.973Z,34.05
2023-04-30T05:43:22.745Z,34.14
2023-04-30T05:45:51.612Z,34.13
2023-04-30T05:48:20.810Z,34.33
2023-04-30T05:51:05.019Z,34.43
2023-04-30T05:53:33.832Z,34.25
2023-04-30T05:56:03.023Z,34.18
2023-04-30T05:58:31.911Z,34.61
2023-04-30T06:01:01.065Z,34.78
2023-04-30T06:03:30.033Z,34.77
2023-04-30T06:05:59.705Z,34.59
2023-04-30T06:08:28.990Z,34.85
2023-04-30T06:10:57.931Z,34.56
2023-04-30T06:13:27.298Z,34.55
2023-04-30T06:15:56.112Z,34.87
2023-04-30T06:18:25.144Z,34.92
2023-04-30T06:20:53.997Z,35.12
2023-04-30T06:23:23.523Z,35.26
2023-04-30T06:25:52.170Z,35.34
2023-04-30T06:28:25.159Z,35.17
2023-04-30T06:30:56.128Z,35.27
2023-04-30T06:33:25.251Z,35.26
2023-04-30T06:35:56.306Z,35.31
2023-04-30T06:38:35.000Z,35.09
2023-04-30T06:41:04.266Z,34.98
2023-04-30T06:43:42.884Z,35.12
2023-04-30T06:46:18.977Z,35.29
2023-04-30T06:48:49.715Z,35.40
2023-04-30T06:51:18.808Z,35.43
2023-04-30T06:54:20.188Z,35.27
2023-04-30T06:57:25.508Z,35.36
2023-04-30T06:59:55.645Z,35.62
2023-04-30T07:02:25.468Z,35.21
2023-04-30T07:04:55.408Z,35.42
2023-04-30T07:07:24.644Z,35.67
2023-04-30T07:09:54.559Z,35.46
2023-04-30T07:12:24.003Z,35.29
2023-04-30T07:14:53.007Z,35.18
2023-04-30T07:17:21.949Z,34.95
2023-04-30T07:22:41.481Z,35.22
2023-04-30T07:28:33.392Z,35.34
2023-04-30T07:31:02.999Z,35.42
2023-04-30T07:33:32.328Z,35.15
2023-04-30T07:36:01.163Z,35.30
2023-04-30T07:41:43.825Z,35.89
2023-04-30T07:44:13.623Z,35.63
2023-04-30T07:46:51.499Z,35.33
2023-04-30T07:49:20.838Z,35.63
2023-04-30T07:51:50.027Z,35.76
2023-04-30T07:54:19.771Z,36.15
2023-04-30T07:56:50.020Z,36.19
2023-04-30T07:59:19.066Z,36.23
2023-04-30T08:01:48.810Z,36.29
2023-04-30T08:04:19.828Z,36.14
2023-04-30T08:06:50.778Z,35.97
2023-04-30T08:09:22.356Z,36.15
2023-04-30T08:11:51.422Z,35.92
2023-04-30T08:14:20.474Z,36.05
2023-04-30T08:16:53.556Z,36.31
2023-04-30T08:19:22.735Z,36.19
2023-04-30T08:21:51.869Z,36.42
2023-04-30T08:24:21.457Z,36.38
2023-04-30T08:26:50.958Z,36.39
2023-04-30T08:29:21.005Z,36.36
2023-04-30T08:31:50.823Z,36.66
2023-04-30T08:34:19.981Z,36.55
2023-04-30T08:36:48.929Z,36.44
2023-04-30T08:39:17.972Z,36.45
2023-04-30T08:41:53.677Z,36.63
2023-04-30T08:44:24.204Z,36.62
2023-04-30T08:46:59.266Z,36.52
2023-04-30T08:49:29.231Z,36.28
2023-04-30T08:52:01.693Z,36.27
2023-04-30T08:54:35.980Z,36.36
2023-04-30T08:57:05.717Z,36.13
2023-04-30T08:59:34.603Z,36.07
2023-04-30T09:02:04.014Z,36.51
2023-04-30T09:04:33.105Z,36.41
2023-04-30T09:07:04.426Z,36.51
2023-04-30T09:09:40.219Z,36.55
2023-04-30T09:12:23.976Z,36.35
2023-04-30T09:15:04.702Z,36.20
2023-04-30T09:17:35.308Z,36.45
2023-04-30T09:20:11.248Z,36.46
2023-04-30T09:22:42.094Z,36.16
2023-04-30T09:25:12.469Z,36.36
2023-04-30T09:27:42.502Z,36.24
2023-04-30T09:30:31.462Z,36.39
2023-04-30T09:33:00.650Z,36.42
2023-04-30T09:35:38.205Z,36.43
2023-04-30T09:38:07.931Z,36.28
2023-04-30T09:40:38.619Z,36.05
2023-04-30T09:43:08.648Z,36.09
2023-04-30T09:49:04.518Z,36.09
2023-04-30T09:51:33.440Z,35.96
2023-04-30T09:54:05.893Z,35.77
2023-04-30T09:56:40.293Z,35.86
2023-04-30T09:59:11.046Z,35.74
2023-04-30T10:01:41.079Z,35.59
2023-04-30T10:04:11.706Z,35.55
2023-04-30T10:06:44.660Z,35.77
2023-04-30T10:09:17.181Z,35.85
2023-04-30T10:11:48.444Z,35.44
2023-04-30T10:14:25.118Z,35.65
2023-04-30T10:17:05.331Z,35.80
2023-04-30T10:19:42.819Z,35.71
2023-04-30T10:22:13.002Z,35.52
2023-04-30T10:24:45.716Z,35.57
2023-04-30T10:27:15.812Z,35.45
2023-04-30T10:29:53.302Z,35.49
2023-04-30T10:32:25.147Z,35.29
2023-04-30T10:35:09.802Z,35.63
2023-04-30T10:37:50.654Z,35.34
2023-04-30T10:43:08.686Z,35.37
2023-04-30T10:45:39.223Z,35.36
2023-04-30T10:48:09.011Z,35.24
2023-04-30T10:50:46.361Z,35.54
2023-04-30T10:56:32.455Z,35.20
2023-04-30T10:59:03.380Z,35.31
2023-04-30T11:01:32.776Z,35.29
2023-04-30T11:04:09.818Z,35.43
2023-04-30T11:07:04.808Z,35.40
2023-04-30T11:09:45.027Z,35.38
2023-04-30T11:12:30.748Z,35.37
2023-04-30T11:15:17.786Z,35.42
2023-04-30T11:17:51.374Z,35.41
2023-04-30T11:20:26.612Z,35.43
2023-04-30T11:23:37.912Z,35.43
2023-04-30T11:26:09.599Z,35.37
2023-04-30T11:28:39.447Z,35.37
2023-04-30T11:31:08.516Z,35.36
2023-04-30T11:33:37.600Z,35.08
2023-04-30T11:36:07.019Z,34.95
2023-04-30T11:38:38.198Z,34.90
2023-04-30T11:41:07.235Z,34.71
2023-04-30T11:43:42.458Z,34.87
2023-04-30T11:46:20.766Z,35.03
2023-04-30T11:51:32.214Z,34.99
2023-04-30T11:54:01.507Z,34.84
2023-04-30T11:56:30.595Z,34.94
2023-04-30T11:58:59.404Z,34.66
2023-04-30T12:01:29.523Z,34.80
2023-04-30T12:03:58.858Z,34.95
2023-04-30T12:06:30.033Z,34.94
2023-04-30T12:09:02.586Z,34.74
2023-04-30T12:11:33.120Z,34.58
2023-04-30T12:14:08.450Z,34.68
2023-04-30T12:16:41.708Z,34.40
2023-04-30T12:19:10.723Z,34.41
2023-04-30T12:21:41.088Z,34.28
2023-04-30T12:24:13.042Z,34.39
2023-04-30T12:26:43.419Z,34.29
2023-04-30T12:29:15.496Z,34.20
2023-04-30T12:31:45.637Z,34.20
2023-04-30T12:34:16.262Z,34.18
2023-04-30T12:36:45.220Z,34.12
2023-04-30T12:39:17.071Z,34.03
2023-04-30T12:41:49.972Z,33.96
2023-04-30T12:44:26.207Z,33.72
2023-04-30T12:47:01.446Z,33.61
2023-04-30T12:49:36.292Z,33.63
2023-04-30T12:52:12.257Z,33.60
2023-04-30T12:54:42.022Z,33.31
2023-04-30T12:57:13.894Z,33.15
2023-04-30T13:00:06.609Z,33.18
2023-04-30T13:02:35.681Z,33.21
2023-04-30T13:05:04.901Z,33.09
2023-04-30T13:07:40.927Z,33.04
2023-04-30T13:10:10.587Z,32.86
2023-04-30T13:12:39.421Z,32.80
2023-04-30T13:15:09.009Z,32.72
2023-04-30T13:17:37.994Z,32.58
2023-04-30T13:20:07.656Z,32.49
2023-04-30T13:22:36.527Z,32.50
2023-04-30T13:25:05.589Z,32.51
2023-04-30T13:27:34.444Z,32.43
2023-04-30T13:30:07.662Z,32.45
2023-04-30T13:32:36.563Z,32.38
2023-04-30T13:35:05.775Z,32.33
2023-04-30T13:37:34.810Z,32.15
2023-04-30T13:40:04.829Z,31.97
2023-04-30T13:42:34.017Z,31.97
2023-04-30T13:45:26.901Z,31.89
2023-04-30T13:47:55.750Z,31.73
2023-04-30T13:50:24.639Z,31.74
2023-04-30T13:52:53.611Z,31.52
2023-04-30T13:55:23.137Z,31.54
2023-04-30T13:57:52.196Z,31.34
2023-04-30T14:00:23.236Z,31.48
2023-04-30T14:02:53.072Z,31.55
2023-04-30T14:05:22.409Z,31.32
2023-04-30T14:07:51.920Z,31.33
2023-04-30T14:10:21.230Z,31.28
2023-04-30T14:12:52.144Z,31.22
2023-04-30T14:15:22.276Z,31.24
2023-04-30T14:17:54.074Z,31.26
2023-04-30T14:20:26.381Z,31.29
2023-04-30T14:23:05.002Z,31.26
2023-04-30T14:25:33.860Z,31.09
2023-04-30T14:28:02.809Z,31.03
2023-04-30T14:30:32.396Z,30.98
2023-04-30T14:33:01.527Z,30.97
2023-04-30T14:35:30.899Z,30.99
2023-04-30T14:37:59.632Z,30.98
2023-04-30T14:40:28.689Z,30.94
2023-04-30T14:42:57.502Z,30.88
2023-04-30T14:45:29.060Z,30.88
2023-04-30T14:47:58.143Z,30.89
2023-04-30T14:50:27.209Z,30.94
2023-04-30T14:52:56.258Z,30.90
2023-04-30T14:55:25.893Z,30.72
2023-04-30T14:57:57.502Z,30.67
2023-04-30T15:00:26.519Z,30.68
2023-04-30T15:02:55.439Z,30.70
2023-04-30T15:05:27.093Z,30.67
2023-04-30T15:07:58.291Z,30.67
2023-04-30T15:10:28.574Z,30.62
2023-04-30T15:12:57.386Z,30.52
2023-04-30T15:15:29.276Z,30.56
2023-04-30T15:17:59.401Z,30.47
2023-04-30T15:20:38.311Z,30.44
2023-04-30T15:23:09.814Z,30.42
2023-04-30T15:25:39.093Z,30.42
2023-04-30T15:28:07.965Z,30.37
2023-04-30T15:30:37.216Z,30.38
2023-04-30T15:33:06.193Z,30.29
2023-04-30T15:35:35.458Z,30.31
2023-04-30T15:38:04.215Z,30.36
2023-04-30T15:40:33.606Z,30.29
2023-04-30T15:43:02.386Z,30.26
2023-04-30T15:45:31.407Z,30.29
2023-04-30T15:48:01.352Z,30.22
2023-04-30T15:50:30.761Z,30.23
2023-04-30T15:52:59.668Z,30.24
2023-04-30T15:55:28.589Z,30.18
2023-04-30T15:57:57.551Z,30.20
2023-04-30T16:00:28.144Z,30.05
2023-04-30T16:02:57.476Z,30.01
2023-04-30T16:05:26.979Z,29.98
2023-04-30T16:07:57.628Z,30.05
2023-04-30T16:10:29.210Z,29.89
2023-04-30T16:12:59.943Z,29.93
2023-04-30T16:15:30.956Z,29.77
2023-04-30T16:18:01.893Z,29.73
2023-04-30T16:20:32.346Z,29.71
2023-04-30T16:23:01.375Z,29.73
2023-04-30T16:25:30.531Z,29.61
2023-04-30T16:27:59.969Z,29.51
2023-04-30T16:30:54.047Z,29.67
2023-04-30T16:33:26.196Z,29.55
2023-04-30T16:35:57.362Z,29.58
2023-04-30T16:38:26.245Z,29.46
2023-04-30T16:40:55.521Z,29.46
2023-04-30T16:43:27.988Z,29.51
2023-04-30T16:45:57.258Z,29.44
2023-04-30T16:48:26.484Z,29.46
2023-04-30T16:50:58.687Z,29.50
2023-04-30T16:53:30.018Z,29.49
2023-04-30T16:56:00.184Z,29.42
2023-04-30T17:01:37.302Z,29.24
2023-04-30T17:04:06.135Z,29.33
2023-04-30T17:06:36.355Z,29.33
2023-04-30T17:09:06.035Z,29.28
2023-04-30T17:11:35.456Z,29.28
2023-04-30T17:14:04.204Z,29.25
2023-04-30T17:16:33.307Z,29.24
2023-04-30T17:19:02.141Z,29.21
2023-04-30T17:21:31.191Z,29.25
2023-04-30T17:23:59.908Z,29.24
2023-04-30T17:26:28.930Z,29.19
2023-04-30T17:28:57.638Z,29.18
2023-04-30T17:31:27.921Z,29.31
2023-04-30T17:33:57.418Z,29.29
2023-04-30T17:36:26.359Z,29.23
2023-04-30T17:38:57.273Z,29.13
2023-04-30T17:41:27.109Z,29.23
2023-04-30T17:43:59.929Z,29.29
2023-04-30T17:46:28.803Z,29.17
2023-04-30T17:48:57.904Z,29.12
2023-04-30T17:52:00.270Z,29.22
2023-04-30T17:54:31.851Z,29.15
2023-04-30T17:57:01.245Z,29.07
2023-04-30T17:59:31.190Z,29.05
2023-04-30T18:02:00.464Z,28.95
2023-04-30T18:04:29.566Z,28.93
2023-04-30T18:06:59.590Z,28.96
2023-04-30T18:09:28.963Z,28.90
2023-04-30T18:15:09.497Z,28.89
2023-04-30T18:17:38.511Z,28.84
2023-04-30T18:20:09.036Z,28.82
2023-04-30T18:22:43.977Z,28.89
2023-04-30T18:25:14.567Z,28.88
2023-04-30T18:27:44.797Z,28.83
2023-04-30T18:30:14.317Z,28.77
2023-04-30T18:32:45.116Z,28.70
2023-04-30T18:35:14.255Z,28.57
2023-04-30T18:37:43.085Z,28.48
2023-04-30T18:40:12.490Z,28.56
2023-04-30T18:42:41.348Z,28.63
2023-04-30T18:45:12.420Z,28.63
2023-04-30T18:47:41.519Z,28.67
2023-04-30T18:50:14.390Z,28.64
2023-04-30T18:52:43.230Z,28.67
2023-04-30T18:55:14.746Z,28.62
2023-04-30T18:57:44.117Z,28.43
2023-04-30T19:00:15.182Z,28.56
2023-04-30T19:02:44.973Z,28.65
2023-04-30T19:05:15.791Z,28.56
2023-04-30T19:07:44.703Z,28.46
2023-04-30T19:10:13.726Z,28.48
2023-04-30T19:12:45.030Z,28.44
2023-04-30T19:15:15.778Z,28.44
2023-04-30T19:17:45.698Z,28.40
2023-04-30T19:20:14.623Z,28.21
2023-04-30T19:22:44.632Z,28.25
2023-04-30T19:25:13.650Z,28.31
2023-04-30T19:27:42.756Z,28.07
2023-04-30T19:30:12.668Z,28.14
2023-04-30T19:32:41.531Z,28.11
2023-04-30T19:35:10.821Z,28.15
2023-04-30T19:37:39.646Z,28.12
2023-04-30T19:40:40.778Z,28.31
2023-04-30T19:46:19.368Z,27.89
2023-04-30T19:48:51.544Z,27.88
2023-04-30T19:51:44.796Z,27.77
2023-04-30T19:54:16.024Z,27.53
2023-04-30T19:56:45.482Z,27.16
2023-04-30T19:59:15.054Z,27.04
2023-04-30T20:01:44.195Z,27.15
2023-04-30T20:04:14.227Z,27.23
2023-04-30T20:06:43.804Z,27.41
2023-04-30T20:09:13.426Z,27.35
2023-04-30T20:11:43.221Z,27.35
2023-04-30T20:14:12.902Z,27.51
2023-04-30T20:16:42.537Z,27.50
2023-04-30T20:19:13.945Z,27.52
2023-04-30T20:21:43.895Z,27.47
2023-04-30T20:24:14.713Z,27.31
2023-04-30T20:26:45.795Z,27.30
2023-04-30T20:29:16.658Z,27.37
2023-04-30T20:31:48.996Z,27.37
2023-04-30T20:34:18.966Z,27.44
2023-04-30T20:36:48.909Z,27.22
2023-04-30T20:39:20.050Z,27.01
2023-04-30T20:41:50.184Z,27.04
2023-04-30T20:44:20.276Z,26.94
2023-04-30T20:46:59.634Z,26.80
2023-04-30T20:49:51.413Z,26.78
2023-04-30T20:52:28.087Z,26.62
2023-04-30T20:55:18.837Z,26.49
2023-04-30T20:58:10.310Z,26.44
2023-04-30T21:00:41.596Z,26.24
2023-04-30T21:03:11.841Z,26.34
2023-04-30T21:05:42.240Z,26.28
2023-04-30T21:08:12.526Z,26.30
2023-04-30T21:10:43.360Z,26.26
2023-04-30T21:13:14.234Z,26.25
2023-04-30T21:15:44.596Z,26.25
2023-04-30T21:18:15.402Z,26.28
2023-04-30T21:20:45.366Z,26.31
2023-04-30T21:23:16.435Z,26.29
2023-04-30T21:25:47.307Z,26.27
2023-04-30T21:28:17.923Z,26.34
2023-04-30T21:31:19.421Z,26.47
2023-04-30T21:33:49.913Z,26.28
2023-04-30T21:36:27.329Z,26.35
2023-04-30T21:39:31.606Z,26.39
2023-04-30T21:42:06.034Z,26.39
2023-04-30T21:44:37.600Z,26.45
2023-04-30T21:47:10.292Z,26.41
2023-04-30T21:49:49.726Z,26.59
2023-04-30T21:52:20.819Z,26.39
2023-04-30T21:54:52.060Z,26.43
2023-04-30T21:58:07.537Z,26.59
2023-04-30T22:00:38.242Z,26.42
2023-04-30T22:03:08.490Z,26.36
2023-04-30T22:06:10.290Z,26.63
2023-04-30T22:08:43.884Z,26.56
2023-04-30T22:11:13.992Z,26.46
2023-04-30T22:13:43.667Z,26.57
2023-04-30T22:16:14.662Z,26.56
2023-04-30T22:18:50.044Z,26.63
2023-04-30T22:21:20.823Z,26.69
2023-04-30T22:23:50.824Z,26.51
2023-04-30T22:29:40.286Z,26.53
2023-04-30T22:32:13.312Z,26.50
2023-04-30T22:34:44.374Z,26.42
2023-04-30T22:37:20.457Z,26.32
2023-04-30T22:39:53.269Z,26.30
2023-04-30T22:45:24.811Z,26.40
2023-04-30T22:48:06.124Z,26.31
2023-04-30T22:50:39.003Z,26.30
2023-04-30T22:53:08.991Z,26.37
2023-04-30T22:55:47.659Z,26.41
2023-04-30T22:58:17.746Z,26.37
2023-04-30T23:00:47.709Z,26.18
2023-04-30T23:03:18.907Z,26.17
2023-04-30T23:05:52.972Z,26.01
2023-04-30T23:08:51.242Z,26.07
2023-04-30T23:11:21.718Z,26.02
2023-04-30T23:13:52.787Z,26.07
2023-04-30T23:16:34.664Z,26.08
2023-04-30T23:19:13.031Z,26.21
2023-04-30T23:21:44.412Z,26.04
2023-04-30T23:24:14.949Z,26.02
2023-04-30T23:26:45.769Z,25.98
2023-04-30T23:29:16.499Z,26.12
2023-04-30T23:31:46.498Z,26.17
2023-04-30T23:34:18.034Z,25.95
2023-04-30T23:36:48.733Z,26.18
2023-04-30T23:39:35.933Z,26.09
2023-04-30T23:42:09.177Z,26.00
2023-04-30T23:44:46.930Z,26.15
2023-04-30T23:47:23.222Z,26.04
2023-04-30T23:50:21.793Z,26.19
2023-04-30T23:52:51.716Z,26.18
2023-04-30T23:55:43.317Z,26.08
2023-04-30T23:58:13.972Z,26.00
